CYWJCYRA

Guest
Details From CYWJ - Deline
To CYRA - Rae Lakes
Flight Number -
Tags generated
Created
Modified
Stats Distance 175 nm / 324 km
Max Altitude 17,700 ft / 5,395 m
Waypoints 3
Social Downloads 0
Likes 0
Share VATSIM

Download

Looking for another format? Having issues loading an existing format? Contact us
Advertisement - Login to hide

Notes

Basic altitude profile: - Ascent Rate: 2500ft/min - Ascent Speed: 250kts - Cruise Altitude: 35000ft - Cruise Speed: 420kts - Descent Rate: 1500ft/min - Descent Speed: 250kts Options: - Use NATs: yes - Use PACOTS: yes - Use low airways: yes - Use high airways: yes

Route

CYWJ 6500N12000W CYRA

ID Type Via Altitude Latitude Longitude Leg Dist Tot Dist Heading (true) Name
O CYWJ APT - 0 ft / 0 m 65.21110˚ -123.43684˚ - 0 nm - Deline
6500N12000W LATLON - 17,700 ft / 5,395 m 65.00000˚ -120.00000˚ 87 nm 87 nm 97° / 100° -
O CYRA APT - 0 ft / 0 m 64.11601˚ -117.30983˚ 87 nm 175 nm 126° / 129° Rae Lakes

Altitude Profile

Advertisement - Login to hide

Weather


0- 5 10 15 20 25 30 35+ Temperature / ° C

Clouds and Precipitation
Forecast for 2017-12-12 00:00 UTC. Updated 2 hours ago

Ground ~20,000 ft ~40,000 ft Winds

CYWJ

Details ICAO CYWJ (YWJ)
Name Deline
Region Canada
Timezone America/Yellowknife (UTC-7.0)
Stats Elevation 695 ft / 212 m (AMSL)
Location 65.211101° -123.436843°
Runways 1
Magnetic Variation 20.532° E

METAR

CYWJ 120000Z 09009KT 40SM FEW060 FEW120 M09/M11 A2959 RMK SC1AC1 -8.6/-11.1/0/20 MUCH LOOSE LAST STFD OBS/NXT 121400UTC SLP043

Decode

TAF

TAF CYWJ 111738Z 1118/1124 10015G25KT P6SM FEW007 SCT080 BKN150 TEMPO 1118/1120 5SM -SN BR SCT007 BKN060 OVC100 FM112000 10012G22KT P6SM SCT012 BKN060 OVC100 TEMPO 1120/1124 5SM -SN BKN012 OVC080 PROB30 1120/1124 2SM -FZRA BR OVC012 RMK NXT FCST WILL BE ISSUED AT 121515Z

Decode

Departure Runways

ID Width Length Bearing (true) Bearing (mag) Surface Threshold Offset Overrun Length
10 164 ft / 50 m 4,375 ft / 1,333 m 100.16° 79.63° Dirt 0 ft / 0 m 0 ft / 0 m
28 164 ft / 50 m 4,375 ft / 1,333 m 280.18° 259.65° Dirt 0 ft / 0 m 0 ft / 0 m

CYRA

Details ICAO CYRA (YRA)
Name Rae Lakes
Region Canada
Timezone America/Yellowknife (UTC-7.0)
Stats Elevation 757 ft / 231 m (AMSL)
Location 64.116013° -117.309831°
Runways 1
Magnetic Variation 18.317° E

METAR

CYRA 120100Z 15006KT 110V180 15SM -SN OVC015 M10/M12 A2971 RMK SC8 -10.1/-12.0/TR/17.0 SNW CVR/MUCH LOOSE LAST STFD OBS/NEXT 121500 UTC SLP084

Decode

TAF

TAF AMD TAF AMD CYRA 112236Z 1122/1201 16010KT P6SM -SN FEW007 SCT015 OVC050 TEMPO 1122/1201 5SM -SN SCT007 BKN015 OVC025 RMK NXT FCST WILL BE ISSUED AT 121645Z

Decode

Destination Runways

ID Width Length Bearing (true) Bearing (mag) Surface Threshold Offset Overrun Length
14 98 ft / 30 m 3,226 ft / 983 m 136.53° 118.21° Dirt 0 ft / 0 m 0 ft / 0 m
32 98 ft / 30 m 3,226 ft / 983 m 316.54° 298.22° Dirt 0 ft / 0 m 0 ft / 0 m